Home > Products > Valid Products > TAF

000
FTUS41 KPBZ 200100 AAA
TAFPIT
TAF AMD
KPIT 200300Z 2002/2106 27005KT P6SM OVC025
     FM200800 VRB03KT 4SM BR OVC022
     FM201400 VRB03KT P6SM OVC025=



000
FTUS41 KPBZ 200100 AAA
TAFZZV
TAF AMD
KZZV 200108Z 2001/2024 00000KT P6SM OVC019
     FM200800 VRB03KT 5SM BR OVC015
     FM201400 VRB03KT P6SM OVC025=



000
FTUS41 KPBZ 200000 AAA
TAFDUJ
TAF AMD
KDUJ 200042Z 2001/2024 29005KT P6SM BKN022
      TEMPO 2001/2005 FEW022
     FM200800 VRB03KT 4SM BR OVC015
     FM201400 VRB03KT P6SM OVC025=



000
FTUS41 KPBZ 192300
TAFHLG
TAF
KHLG 192320Z 2000/2024 27004KT P6SM OVC023
     FM200800 VRB03KT 4SM BR OVC022
     FM201400 VRB03KT P6SM OVC025=



000
FTUS41 KPBZ 192300
TAFLBE
TAF
KLBE 192320Z 2000/2024 28006KT P6SM OVC026
     FM200800 VRB03KT 4SM BR OVC022
     FM201400 VRB03KT P6SM OVC025
      AMD NOT SKED 2003/2011=



000
FTUS41 KPBZ 192300
TAFDUJ
TAF
KDUJ 192320Z 2000/2024 29005KT P6SM BKN021
     FM200800 VRB03KT 4SM BR OVC015
     FM201400 VRB03KT P6SM OVC025=



000
FTUS41 KPBZ 192300
TAFBVI
TAF
KBVI 192320Z 2000/2024 31003KT P6SM OVC026
     FM200800 VRB03KT 4SM BR OVC022
     FM201400 VRB03KT P6SM OVC025
      AMD NOT SKED 2002/2012=



000
FTUS41 KPBZ 192300
TAFMGW
TAF
KMGW 192320Z 2000/2024 29003KT P6SM OVC021
     FM200800 VRB03KT 4SM BR OVC020
     FM201400 VRB03KT P6SM OVC025=



000
FTUS41 KPBZ 192300
TAFZZV
TAF
KZZV 192320Z 2000/2024 00000KT P6SM OVC021
     FM200800 VRB03KT 5SM BR OVC020
     FM201400 VRB03KT P6SM OVC025=



000
FTUS41 KPBZ 192300
TAFPIT
TAF
KPIT 192320Z 2000/2106 32005KT P6SM OVC027
     FM200800 VRB03KT 4SM BR OVC022
     FM201400 VRB03KT P6SM OVC025=



000
FTUS41 KPBZ 192300
TAFAGC
TAF
KAGC 192320Z 2000/2024 28004KT P6SM OVC028
     FM200800 VRB03KT 4SM BR OVC022
     FM201400 VRB03KT P6SM OVC025=



000
FTUS41 KPBZ 192100 AAB
TAFPIT
TAF AMD
KPIT 192158Z 1922/2024 30005KT P6SM OVC025
     FM200000 31003KT P6SM OVC025=



000
FTUS41 KPBZ 192000 AAA
TAFBVI
TAF AMD
KBVI 192000Z 1920/2018 32006KT P6SM OVC022=



000
FTUS41 KPBZ 192000 AAA
TAFBVI
TAF AMD
KBVI 192000Z 1920/2018 32006KT P6SM OVC022=



000
FTUS41 KPBZ 191900 AAA
TAFMGW
TAF AMD
KMGW 191958Z 1920/2018 26003KT P6SM OVC025=



000
FTUS41 KPBZ 191900 AAA
TAFDUJ
TAF AMD
KDUJ 191958Z 1920/2018 31006KT P6SM OVC025=



000
FTUS41 KPBZ 191900 AAA
TAFZZV
TAF AMD
KZZV 191958Z 1920/2018 VRB03KT P6SM OVC025=



000
FTUS41 KPBZ 191900 AAA
TAFDUJ
TAF AMD
KDUJ 191958Z 1920/2018 31006KT P6SM OVC025=



000
FTUS41 KPBZ 191900 AAA
TAFMGW
TAF AMD
KMGW 191958Z 1920/2018 26003KT P6SM OVC025=



000
FTUS41 KPBZ 191900 AAA
TAFZZV
TAF AMD
KZZV 191958Z 1920/2018 VRB03KT P6SM OVC025=



000
FTUS41 KPBZ 191900 AAA
TAFAGC
TAF AMD
KAGC 191948Z 1920/2018 31003KT P6SM OVC025=



000
FTUS41 KPBZ 191900 AAA
TAFAGC
TAF AMD
KAGC 191948Z 1920/2018 31003KT P6SM OVC025=



000
FTUS41 KPBZ 191900 AAA
TAFPIT
TAF AMD
KPIT 191945Z 1920/2024 31006KT 6SM HZ BKN025
     FM200000 31003KT P6SM OVC025=



000
FTUS41 KPBZ 191900 AAA
TAFPIT
TAF AMD
KPIT 191945Z 1920/2024 31006KT 6SM HZ BKN025
     FM200000 31003KT P6SM OVC025=



000
FTUS41 KPBZ 191700
TAFZZV
TAF
KZZV 191739Z 1918/2018 27003KT P6SM OVC025
     FM192300 31003KT P6SM OVC025=



000
FTUS41 KPBZ 191700
TAFLBE
TAF
KLBE 191739Z 1918/2018 25007KT 5SM BR OVC009
     FM192000 27008KT P6SM OVC015
     FM200200 30009KT P6SM OVC025=



000
FTUS41 KPBZ 191700
TAFBVI
TAF
KBVI 191739Z 1918/2018 32006KT P6SM OVC015
     FM200200 31003KT P6SM OVC025=



000
FTUS41 KPBZ 191700
TAFAGC
TAF
KAGC 191739Z 1918/2018 26006KT 3SM BR OVC015
     FM192100 28007KT P6SM OVC015
     FM200000 31003KT P6SM OVC025=



000
FTUS41 KPBZ 191700
TAFPIT
TAF
KPIT 191739Z 1918/2024 31006KT 4SM -SN BR BKN015
     FM192100 32006KT P6SM OVC015
     FM200000 31003KT P6SM OVC025=



000
FTUS41 KPBZ 191700
TAFHLG
TAF
KHLG 191739Z 1918/2018 26006KT P6SM OVC015
     FM192200 28007KT P6SM OVC025
     FM200500 32004KT P6SM OVC025=



000
FTUS41 KPBZ 191700
TAFMGW
TAF
KMGW 191739Z 1918/2018 26003KT P6SM OVC015
     FM200200 29003KT P6SM OVC025=



000
FTUS41 KPBZ 191700
TAFDUJ
TAF
KDUJ 191739Z 1918/2018 31010KT P6SM OVC015
     FM192300 31006KT P6SM OVC025=



000
FTUS41 KPBZ 191600 AAB
TAFHLG
TAF AMD
KHLG 191635Z 1917/2012 25006KT P6SM OVC015
     FM192200 28007KT P6SM OVC025
     FM200500 32004KT P6SM OVC025=



000
FTUS41 KPBZ 191600 AAC
TAFLBE
TAF AMD
KLBE 191601Z 1916/2012 23007KT 5SM -SN BR OVC009
     FM191800 27008KT P6SM OVC015
     FM192300 27009KT P6SM OVC025=



000
FTUS41 KPBZ 191500 AAB
TAFBVI
TAF AMD
KBVI 191557Z 1916/2012 32006KT P6SM OVC020
     FM200200 31003KT P6SM OVC015=



000
FTUS41 KPBZ 191400 AAB
TAFLBE
TAF AMD
KLBE 191454Z 1915/2012 23007KT 4SM -FZDZ OVC009
     FM191600 27008KT P6SM OVC015
     FM192200 27009KT P6SM BKN025=



000
FTUS41 KPBZ 191400 AAA
TAFDUJ
TAF AMD
KDUJ 191438Z 1915/2012 27010KT P6SM OVC015
     FM192200 30006KT P6SM OVC025=



000
FTUS41 KPBZ 191400 AAA
TAFZZV
TAF AMD
KZZV 191437Z 1915/2012 27003KT P6SM OVC020
     FM192000 31003KT P6SM OVC025=



000
FTUS41 KPBZ 191400 AAA
TAFMGW
TAF AMD
KMGW 191436Z 1915/2012 24003KT P6SM OVC020
     FM191800 29003KT P6SM OVC025=



000
FTUS41 KPBZ 191400 AAA
TAFHLG
TAF AMD
KHLG 191435Z 1915/2012 25006KT P6SM OVC009
     FM191900 28007KT P6SM OVC015
     FM200500 27002KT P6SM OVC025=



000
FTUS41 KPBZ 191400 AAA
TAFBVI
TAF AMD
KBVI 191434Z 1915/2012 32006KT 5SM BR OVC009
     FM191900 28007KT P6SM OVC015
     FM200200 31003KT P6SM OVC025=



000
FTUS41 KPBZ 191400 AAA
TAFAGC
TAF AMD
KAGC 191433Z 1915/2012 26006KT 3SM -SN BR OVC010
     FM191900 28007KT P6SM OVC015
     FM200000 31003KT P6SM OVC025=



000
FTUS41 KPBZ 191400 AAA
TAFPIT
TAF AMD
KPIT 191432Z 1915/2018 26006KT 2SM -SN BR OVC008
     FM191900 28007KT P6SM OVC015
     FM200000 31003KT P6SM OVC025=



000
FTUS41 KPBZ 191400 AAA
TAFLBE
TAF AMD
KLBE 191401Z 1914/2012 25007KT 4SM -FZDZ OVC009
     FM191500 27008KT P6SM OVC015
     FM192200 27009KT P6SM BKN025=



000
FTUS41 KPBZ 191100 CCA
TAFDUJ
TAF COR
KDUJ 191143Z 1912/2012 27010KT 6SM BR OVC010
      TEMPO 1914/1916 5SM -FZDZ BR
     FM191700 28008KT P6SM OVC015
     FM192000 30006KT P6SM BKN025=



000
FTUS41 KPBZ 191100
TAFAGC
TAF
KAGC 191139Z 1912/2012 26006KT 4SM -FZDZ BR OVC008
      TEMPO 1912/1913 6SM BR OVC010
     FM191300 27007KT 4SM -FZDZ BR OVC008
     FM191400 28007KT P6SM BKN015
     FM200000 31003KT P6SM BKN025=



000
FTUS41 KPBZ 191100
TAFPIT
TAF
KPIT 191139Z 1912/2018 26006KT 4SM -FZDZ BR OVC008
      TEMPO 1912/1913 6SM BR OVC010
     FM191300 27007KT 4SM -FZDZ BR OVC008
     FM191400 28007KT P6SM BKN015
     FM200000 31003KT P6SM BKN025=



000
FTUS41 KPBZ 191100
TAFBVI
TAF
KBVI 191139Z 1912/2012 26006KT 4SM -FZDZ BR OVC008
      TEMPO 1912/1913 6SM BR OVC010
     FM191300 27007KT 4SM -FZDZ BR OVC008
     FM191400 28007KT P6SM BKN015
     FM200000 31003KT P6SM BKN025=



000
FTUS41 KPBZ 191100
TAFLBE
TAF
KLBE 191139Z 1912/2012 25007KT 4SM -FZDZ OVC011
     FM191300 26008KT 6SM BR OVC015
      TEMPO 1913/1914 2SM -FZDZ OVC015
     FM191500 27008KT P6SM OVC015
     FM191800 27009KT P6SM BKN025
     FM192300 31003KT P6SM BKN035
      AMD NOT SKED=



000
FTUS41 KPBZ 191100
TAFZZV
TAF
KZZV 191139Z 1912/2012 28003KT P6SM FEW014 OVC020
     FM191700 29006KT P6SM BKN025
     FM192000 31003KT P6SM OVC050=



000
FTUS41 KPBZ 191100
TAFMGW
TAF
KMGW 191139Z 1912/2012 24003KT P6SM OVC015
     FM191700 29003KT P6SM OVC025
     FM192000 31003KT P6SM OVC050=



000
FTUS41 KPBZ 191100
TAFDUJ
TAF
KDUJ 191139Z 1912/2012 27010KT 6SM BR OVC005
     FM191700 28008KT P6SM OVC015
     FM192000 30006KT P6SM BKN025=



000
FTUS41 KPBZ 191100
TAFHLG
TAF
KHLG 191139Z 1912/2012 26006KT P6SM OVC009
     FM191500 28007KT P6SM BKN015
      TEMPO 1918/1921 5SM -FZDZ BR OVC012
     FM200500 27002KT P6SM OVC025=



000
FTUS41 KPBZ 190800 AAA
TAFBVI
TAF AMD
KBVI 190821Z 1908/2006 26006KT 6SM BR OVC012
      TEMPO 1908/1912 4SM -FZDZ BR OVC007
     FM191500 28007KT P6SM BKN015
     FM200000 31003KT P6SM OVC025=



000
FTUS41 KPBZ 190800 AAA
TAFDUJ
TAF AMD
KDUJ 190821Z 1908/2006 27010KT 6SM BR OVC005
     FM191700 28008KT P6SM OVC015
     FM192000 30006KT P6SM BKN025=



000
FTUS41 KPBZ 190800 AAA
TAFZZV
TAF AMD
KZZV 190821Z 1908/2006 28003KT P6SM FEW014 OVC020
     FM191700 29006KT P6SM BKN025
     FM192000 31003KT P6SM OVC050=



000
FTUS41 KPBZ 190800 AAA
TAFLBE
TAF AMD
KLBE 190821Z 1908/2006 26006KT 6SM BR OVC012
      TEMPO 1909/1913 4SM -FZDZ BR OVC007
     FM191500 28007KT P6SM BKN015
     FM200000 31003KT P6SM OVC025
      AMD NOT SKED=



000
FTUS41 KPBZ 190800 AAA
TAFAGC
TAF AMD
KAGC 190821Z 1908/2006 26006KT 6SM BR OVC012
      TEMPO 1908/1912 4SM -FZDZ BR OVC007
     FM191500 28007KT P6SM BKN015
     FM200000 31003KT P6SM OVC025=



000
FTUS41 KPBZ 190800 AAA
TAFMGW
TAF AMD
KMGW 190821Z 1908/2006 24003KT P6SM OVC015
     FM191700 29003KT P6SM OVC025
     FM192000 31003KT P6SM OVC050=



000
FTUS41 KPBZ 190800 AAA
TAFHLG
TAF AMD
KHLG 190821Z 1908/2006 26006KT P6SM OVC009
     FM191500 28007KT P6SM BKN015 PROB30 1918/1921 5SM -DZ BR OVC012
     FM200500 27002KT P6SM OVC025=



000
FTUS41 KPBZ 190800 AAA
TAFPIT
TAF AMD
KPIT 190821Z 1908/2012 26006KT 6SM BR OVC010
      TEMPO 1908/1912 4SM -FZDZ BR OVC007
     FM191500 28007KT P6SM BKN015
     FM200000 31003KT P6SM OVC025=



000
FTUS41 KPBZ 190800 AAA
TAFDUJ
TAF AMD
KDUJ 190821Z 1908/2006 27010KT 6SM BR OVC005
     FM191700 28008KT P6SM OVC015
     FM192000 30006KT P6SM BKN025=



000
FTUS41 KPBZ 190800 AAA
TAFMGW
TAF AMD
KMGW 190821Z 1908/2006 24003KT P6SM OVC015
     FM191700 29003KT P6SM OVC025
     FM192000 31003KT P6SM OVC050=



000
FTUS41 KPBZ 190800 AAA
TAFZZV
TAF AMD
KZZV 190821Z 1908/2006 28003KT P6SM FEW014 OVC020
     FM191700 29006KT P6SM BKN025
     FM192000 31003KT P6SM OVC050=



000
FTUS41 KPBZ 190800 AAA
TAFLBE
TAF AMD
KLBE 190821Z 1908/2006 26006KT 6SM BR OVC012
      TEMPO 1909/1913 4SM -FZDZ BR OVC007
     FM191500 28007KT P6SM BKN015
     FM200000 31003KT P6SM OVC025
      AMD NOT SKED=



000
FTUS41 KPBZ 190800 AAA
TAFPIT
TAF AMD
KPIT 190821Z 1908/2012 26006KT 6SM BR OVC010
      TEMPO 1908/1912 4SM -FZDZ BR OVC007
     FM191500 28007KT P6SM BKN015
     FM200000 31003KT P6SM OVC025=



000
FTUS41 KPBZ 190800 AAA
TAFBVI
TAF AMD
KBVI 190821Z 1908/2006 26006KT 6SM BR OVC012
      TEMPO 1908/1912 4SM -FZDZ BR OVC007
     FM191500 28007KT P6SM BKN015
     FM200000 31003KT P6SM OVC025=



000
FTUS41 KPBZ 190800 AAA
TAFHLG
TAF AMD
KHLG 190821Z 1908/2006 26006KT P6SM OVC009
     FM191500 28007KT P6SM BKN015 PROB30 1918/1921 5SM -DZ BR OVC012
     FM200500 27002KT P6SM OVC025=



000
FTUS41 KPBZ 190800 AAA
TAFAGC
TAF AMD
KAGC 190821Z 1908/2006 26006KT 6SM BR OVC012
      TEMPO 1908/1912 4SM -FZDZ BR OVC007
     FM191500 28007KT P6SM BKN015
     FM200000 31003KT P6SM OVC025=



000
FTUS41 KPBZ 190500
TAFHLG
TAF
KHLG 190540Z 1906/2006 27005KT 6SM -SHSN OVC015
     FM190700 27008KT P6SM OVC015=



000
FTUS41 KPBZ 190500
TAFLBE
TAF
KLBE 190540Z 1906/2006 25008KT 6SM -SHSN OVC015
     FM190900 27008KT P6SM OVC015
      AMD NOT SKED=



000
FTUS41 KPBZ 190500
TAFPIT
TAF
KPIT 190540Z 1906/2012 27008KT 6SM -SHSN OVC015
     FM190800 29008KT P6SM OVC015
      TEMPO 1908/1912 5SM -SN BR OVC010
     FM200000 31003KT P6SM OVC025=



000
FTUS41 KPBZ 190500
TAFAGC
TAF
KAGC 190540Z 1906/2006 27008KT 6SM -SHSN OVC015
      TEMPO 1908/1912 -SN BR OVC010
     FM191200 29008KT P6SM OVC015=



000
FTUS41 KPBZ 190500
TAFBVI
TAF
KBVI 190540Z 1906/2006 25006KT 6SM -SHSN OVC015
     FM190700 29008KT P6SM OVC015
      AMD NOT SKED=



000
FTUS41 KPBZ 190500
TAFMGW
TAF
KMGW 190540Z 1906/2006 24005KT 4SM -SN OVC015
     FM190900 27004KT P6SM OVC015
     FM192100 29003KT P6SM OVC025=



000
FTUS41 KPBZ 190500
TAFDUJ
TAF
KDUJ 190540Z 1906/2006 28010KT 6SM -SN BR OVC008
     FM191000 28008KT P6SM OVC015=



000
FTUS41 KPBZ 190500
TAFZZV
TAF
KZZV 190540Z 1906/2006 27008KT 4SM -SN OVC015
     FM190900 27008KT P6SM OVC015=



000
FTUS41 KPBZ 190300 AAB
TAFDUJ
TAF AMD
KDUJ 190321Z 1903/1924 28010KT 6SM -SN BR OVC008
     FM191000 28008KT P6SM OVC015=



000
FTUS41 KPBZ 190300 AAA
TAFMGW
TAF AMD
KMGW 190321Z 1903/1924 24005KT 4SM -SN OVC015
     FM190900 27004KT P6SM OVC015
     FM192100 29003KT P6SM OVC025=



000
FTUS41 KPBZ 190300 AAA
TAFHLG
TAF AMD
KHLG 190321Z 1903/1924 27005KT 6SM -SHSN OVC015
     FM190700 27008KT P6SM OVC015=



000
FTUS41 KPBZ 190300 AAA
TAFZZV
TAF AMD
KZZV 190321Z 1903/1924 27008KT 4SM -SN OVC015
     FM190600 27008KT P6SM OVC015=



000
FTUS41 KPBZ 190300 AAB
TAFDUJ
TAF AMD
KDUJ 190321Z 1903/1924 28010KT 6SM -SN BR OVC008
     FM191000 28008KT P6SM OVC015=



000
FTUS41 KPBZ 190300 AAA
TAFLBE
TAF AMD
KLBE 190321Z 1903/1924 25008KT 6SM -SHSN OVC015
     FM190900 27008KT P6SM OVC015
      AMD NOT SKED=



000
FTUS41 KPBZ 190300 AAA
TAFAGC
TAF AMD
KAGC 190321Z 1903/1924 27008KT 6SM -SHSN OVC015
     FM190700 29008KT P6SM OVC015=



000
FTUS41 KPBZ 190300 AAA
TAFZZV
TAF AMD
KZZV 190321Z 1903/1924 27008KT 4SM -SN OVC015
     FM190600 27008KT P6SM OVC015=



000
FTUS41 KPBZ 190300 AAA
TAFMGW
TAF AMD
KMGW 190321Z 1903/1924 24005KT 4SM -SN OVC015
     FM190900 27004KT P6SM OVC015
     FM192100 29003KT P6SM OVC025=



000
FTUS41 KPBZ 190300 AAA
TAFPIT
TAF AMD
KPIT 190321Z 1903/2006 27008KT 6SM -SHSN OVC015
     FM190700 29008KT P6SM OVC015
     FM200000 31003KT P6SM OVC025=



000
FTUS41 KPBZ 190300 AAA
TAFHLG
TAF AMD
KHLG 190321Z 1903/1924 27005KT 6SM -SHSN OVC015
     FM190700 27008KT P6SM OVC015=



000
FTUS41 KPBZ 190300 AAA
TAFBVI
TAF AMD
KBVI 190321Z 1903/1924 25006KT 6SM -SHSN OVC015
     FM190700 29008KT P6SM OVC015
      AMD NOT SKED=



000
FTUS41 KPBZ 190300 AAA
TAFAGC
TAF AMD
KAGC 190321Z 1903/1924 27008KT 6SM -SHSN OVC015
     FM190700 29008KT P6SM OVC015=



000
FTUS41 KPBZ 190300 AAA
TAFLBE
TAF AMD
KLBE 190321Z 1903/1924 25008KT 6SM -SHSN OVC015
     FM190900 27008KT P6SM OVC015
      AMD NOT SKED=



000
FTUS41 KPBZ 190300 AAA
TAFPIT
TAF AMD
KPIT 190321Z 1903/2006 27008KT 6SM -SHSN OVC015
     FM190700 29008KT P6SM OVC015
     FM200000 31003KT P6SM OVC025=



000
FTUS41 KPBZ 190300 AAA
TAFBVI
TAF AMD
KBVI 190321Z 1903/1924 25006KT 6SM -SHSN OVC015
     FM190700 29008KT P6SM OVC015
      AMD NOT SKED=



000
FTUS41 KPBZ 190100 AAA
TAFDUJ
TAF AMD
KDUJ 190125Z 1901/1924 28010KT P6SM OVC008
     FM190300 28010KT 4SM -SN BR OVC008
     FM191000 28008KT P6SM OVC015=



000
FTUS41 KPBZ 182300
TAFDUJ
TAF
KDUJ 182328Z 1900/1924 28010KT P6SM OVC015
     FM190300 28010KT 4SM -SN OVC015
     FM191000 28008KT P6SM OVC015=



000
FTUS41 KPBZ 182300
TAFLBE
TAF
KLBE 182328Z 1900/1924 27008KT P6SM OVC015
     FM190300 27008KT 5SM -SN OVC010
     FM190900 27008KT P6SM OVC015
      AMD NOT SKED 1903/1911=



000
FTUS41 KPBZ 182300
TAFPIT
TAF
KPIT 182328Z 1900/2006 28006KT P6SM OVC015
     FM190200 27008KT 5SM -SN OVC010
     FM190700 29008KT P6SM OVC015
     FM200000 31003KT P6SM OVC025=



000
FTUS41 KPBZ 182300
TAFHLG
TAF
KHLG 182328Z 1900/1924 26008KT P6SM OVC015
     FM190200 27008KT 4SM -SN OVC010
     FM190600 27008KT P6SM OVC015=



000
FTUS41 KPBZ 182300
TAFZZV
TAF
KZZV 182328Z 1900/1924 25005KT P6SM OVC019
     FM190200 27008KT 4SM -SN OVC010
     FM190600 27008KT P6SM OVC015=



000
FTUS41 KPBZ 182300
TAFMGW
TAF
KMGW 182328Z 1900/1924 26005KT 4SM -SN OVC015
     FM190600 27004KT P6SM OVC015
     FM192100 29003KT P6SM OVC025=



000
FTUS41 KPBZ 182300
TAFBVI
TAF
KBVI 182328Z 1900/1924 27005KT P6SM OVC015
     FM190100 27008KT 5SM -SN OVC010
     FM190600 29008KT P6SM OVC015
      AMD NOT SKED 1902/1912=



000
FTUS41 KPBZ 182300
TAFAGC
TAF
KAGC 182328Z 1900/1924 26006KT P6SM OVC015
     FM190200 27008KT 5SM -SN OVC010
     FM190700 29008KT P6SM OVC015=



000
FTUS41 KPBZ 182100 AAB
TAFAGC
TAF AMD
KAGC 182109Z 1821/1918 25008KT P6SM OVC020
     FM182300 28006KT P6SM OVC015
     FM190300 27008KT 4SM -SN OVC010
     FM191000 29008KT P6SM OVC015=



000
FTUS41 KPBZ 182100 AAA
TAFPIT
TAF AMD
KPIT 182109Z 1821/1924 26006KT P6SM OVC021
     FM182300 28006KT P6SM OVC015
     FM190300 27008KT 4SM -SN OVC010
     FM191000 29008KT P6SM OVC015=



000
FTUS41 KPBZ 181900 AAA
TAFAGC
TAF AMD
KAGC 181922Z 1819/1918 27006KT P6SM -SN OVC015
     FM182300 28006KT P6SM OVC015
     FM190300 27008KT 4SM -SN OVC010
     FM191000 29008KT P6SM OVC015=



000
FTUS41 KPBZ 181700
TAFPIT
TAF
KPIT 181730Z 1818/1924 28006KT P6SM -SN OVC019
     FM182300 28006KT P6SM OVC015
     FM190300 27008KT 4SM -SN OVC010
     FM191000 29008KT P6SM OVC015=



000
FTUS41 KPBZ 181700
TAFLBE
TAF
KLBE 181730Z 1818/1918 26008KT 4SM -SN BR OVC020
     FM182200 28006KT P6SM OVC015
     FM190400 27008KT 4SM -SN OVC010
     FM191100 27008KT P6SM OVC015=



000
FTUS41 KPBZ 181700
TAFDUJ
TAF
KDUJ 181730Z 1818/1918 27009KT 2SM BR OVC005
     FM182100 28012KT 4SM BR OVC015
     FM190400 28012KT 4SM -SN OVC015
     FM191200 28008KT P6SM OVC015=



000
FTUS41 KPBZ 181700
TAFZZV
TAF
KZZV 181730Z 1818/1918 28005KT P6SM OVC019
     FM190200 27008KT 4SM -SN OVC010
     FM191000 27008KT P6SM OVC015=



000
FTUS41 KPBZ 181700
TAFAGC
TAF
KAGC 181730Z 1818/1918 28006KT 2SM -SN BR OVC015
     FM182300 28006KT P6SM OVC015
     FM190300 27008KT 4SM -SN OVC010
     FM191000 29008KT P6SM OVC015=



000
FTUS41 KPBZ 181700
TAFBVI
TAF
KBVI 181730Z 1818/1918 28006KT P6SM -SN OVC019
     FM190300 27008KT 4SM -SN OVC010
     FM191000 29008KT P6SM OVC015=



000
FTUS41 KPBZ 181700
TAFHLG
TAF
KHLG 181730Z 1818/1918 25008KT P6SM OVC018
     FM190200 27008KT 4SM -SN OVC010
     FM190900 27008KT P6SM OVC015=



000
FTUS41 KPBZ 181700
TAFMGW
TAF
KMGW 181730Z 1818/1918 26005KT P6SM OVC025
     FM190200 26006KT 4SM -SN OVC015
     FM191000 27004KT P6SM OVC015=



000
FTUS41 KPBZ 181600 AAB
TAFDUJ
TAF AMD
KDUJ 181648Z 1817/1912 27009KT 4SM BR OVC005
     FM182200 28012KT P6SM OVC015
     FM190400 28012KT 4SM -SN OVC015=



000
FTUS41 KPBZ 181600 AAA
TAFMGW
TAF AMD
KMGW 181643Z 1817/1912 28006KT P6SM OVC025
     FM190200 26006KT 4SM -SN OVC015=



000
FTUS41 KPBZ 181500 AAA
TAFHLG
TAF AMD
KHLG 181501Z 1815/1912 25005KT P6SM OVC018
     FM182300 28006KT P6SM OVC025
     FM190200 27008KT 4SM -SN OVC010=



000
FTUS41 KPBZ 181500 AAA
TAFZZV
TAF AMD
KZZV 181500Z 1815/1912 27004KT P6SM OVC019
     FM182200 26006KT P6SM OVC025
     FM190200 27008KT 4SM -SN OVC010=



000
FTUS41 KPBZ 181400 AAA
TAFLBE
TAF AMD
KLBE 181459Z 1815/1912 28012KT P6SM -SN OVC020
     FM182200 28006KT P6SM OVC025
     FM190400 27008KT 4SM -SN OVC010=



000
FTUS41 KPBZ 181400 AAA
TAFBVI
TAF AMD
KBVI 181458Z 1815/1912 27008KT P6SM -SN OVC019
     FM182200 26009KT P6SM OVC025
     FM190300 28006KT 4SM -SN OVC010=



000
FTUS41 KPBZ 181400 AAA
TAFAGC
TAF AMD
KAGC 181457Z 1815/1912 28006KT 4SM -SN BR OVC020
     FM182200 28006KT P6SM OVC025
     FM190300 27008KT 4SM -SN OVC010=



000
FTUS41 KPBZ 181400 AAA
TAFPIT
TAF AMD
KPIT 181456Z 1815/1918 28006KT P6SM -SN OVC018
     FM182200 28006KT P6SM OVC025
     FM190300 27008KT 4SM -SN OVC010=



000
FTUS41 KPBZ 181400 AAA
TAFDUJ
TAF AMD
KDUJ 181436Z 1815/1912 27009KT 4SM BR OVC007
     FM181700 28012KT P6SM OVC015
     FM190400 28012KT 4SM -SN OVC015=



000
FTUS41 KPBZ 181100 CCA
TAFMGW
TAF COR
KMGW 181140Z 1812/1912 29006KT P6SM BKN015
     FM181300 28006KT P6SM BKN025
     FM181700 28006KT P6SM OVC035=



000
FTUS41 KPBZ 181100
TAFHLG
TAF
KHLG 181134Z 1812/1912 26009KT P6SM OVC025
     FM181700 28006KT P6SM OVC035=



000
FTUS41 KPBZ 181100
TAFMGW
TAF
KMGW 181134Z 1812/1912 26006KT P6SM BKN025=



000
FTUS41 KPBZ 181100
TAFDUJ
TAF
KDUJ 181134Z 1812/1912 26012KT P6SM BKN015
     FM190100 28010G18KT P6SM VCSH OVC015 PROB30 1903/1906 5SM -SN
      BR OVC008=



000
FTUS41 KPBZ 181100
TAFZZV
TAF
KZZV 181134Z 1812/1912 28007KT P6SM OVC025
     FM181700 26006KT P6SM BKN040=



000
FTUS41 KPBZ 181100
TAFPIT
TAF
KPIT 181134Z 1812/1918 27008KT P6SM -SN OVC025
     FM181300 26009KT P6SM OVC025
     FM181700 28006KT P6SM OVC035=



000
FTUS41 KPBZ 181100
TAFLBE
TAF
KLBE 181134Z 1812/1912 26009KT P6SM OVC025
     FM181700 28006KT P6SM OVC050=



000
FTUS41 KPBZ 181100
TAFBVI
TAF
KBVI 181134Z 1812/1912 27008KT P6SM -SN OVC025
     FM181300 26009KT P6SM OVC025
     FM181700 28006KT P6SM OVC035=



000
FTUS41 KPBZ 181100
TAFAGC
TAF
KAGC 181134Z 1812/1912 27008KT P6SM -SN OVC025
     FM181300 26009KT P6SM OVC025
     FM181700 28006KT P6SM OVC035=



000
FTUS41 KPBZ 180900 AAA
TAFPIT
TAF AMD
KPIT 180918Z 1809/1912 27010KT P6SM -SN OVC025
     FM181000 26012KT P6SM OVC035=



000
FTUS41 KPBZ 180900 AAA
TAFPIT
TAF AMD
KPIT 180918Z 1809/1912 27010KT P6SM -SN OVC025
     FM181000 26012KT P6SM OVC035=



000
FTUS41 KPBZ 180500 AAA
TAFBVI
TAF AMD
KBVI 180515Z 1805/1824 27010KT P6SM -SN OVC020
     FM181000 26012KT P6SM OVC035
      AMD NOT SKED TIL 181200=



000
FTUS41 KPBZ 180500 AAA
TAFLBE
TAF AMD
KLBE 180515Z 1805/1824 28012KT P6SM -SN OVC030
     FM181400 27012KT P6SM OVC025
      AMD NOT SKED TIL 181100=



000
FTUS41 KPBZ 180500 AAB
TAFHLG
TAF AMD
KHLG 180515Z 1805/1824 28008KT P6SM BKN015
     FM181000 26012KT P6SM OVC025=



000
FTUS41 KPBZ 180500 AAA
TAFDUJ
TAF AMD
KDUJ 180515Z 1805/1824 26012KT 6SM -SN BR BKN025
     FM181300 28010G18KT P6SM OVC015
     FM182000 28012G20KT 6SM -SN OVC008=



000
FTUS41 KPBZ 180500 AAA
TAFMGW
TAF AMD
KMGW 180515Z 1805/1824 26006KT P6SM BKN025=



000
FTUS41 KPBZ 180500 AAB
TAFAGC
TAF AMD
KAGC 180515Z 1805/1824 27010KT P6SM -SN OVC030
     FM181000 26012KT P6SM OVC035=



000
FTUS41 KPBZ 180500 AAB
TAFPIT
TAF AMD
KPIT 180515Z 1805/1906 27010KT P6SM -SN OVC035
     FM181000 26012KT P6SM OVC035=



000
FTUS41 KPBZ 180500 AAB
TAFZZV
TAF AMD
KZZV 180515Z 1805/1824 28007KT P6SM OVC020
     FM181500 26006KT P6SM BKN025=



000
FTUS41 KPBZ 180300 AAA
TAFAGC
TAF AMD
KAGC 180302Z 1803/1824 28009G16KT P6SM -SHSN OVC022
     FM180500 29010KT P6SM OVC016
     FM181600 26012KT P6SM OVC025=



000
FTUS41 KPBZ 180300 AAA
TAFPIT
TAF AMD
KPIT 180300Z 1803/1906 29018G23KT P6SM -SHSN OVC027
     FM180500 29010KT P6SM OVC020
     FM181600 26012KT P6SM OVC025
     FM190100 27005KT P6SM OVC025=



000
FTUS41 KPBZ 180000 AAA
TAFHLG
TAF AMD
KHLG 180059Z 1801/1824 26010G20KT P6SM OVC025
     FM180300 28008G18KT P6SM OVC015
     FM181600 26012KT P6SM OVC025=



000
FTUS41 KPBZ 180000 AAA
TAFZZV
TAF AMD
KZZV 180006Z 1800/1824 26010KT P6SM OVC015
     FM181500 26006KT P6SM BKN025=



000
FTUS41 KPBZ 172300
TAFZZV
TAF
KZZV 172320Z 1800/1824 26010KT P6SM OVC020
     FM181500 26006KT P6SM BKN025=



000
FTUS41 KPBZ 172300
TAFMGW
TAF
KMGW 172320Z 1800/1824 26008KT P6SM OVC025
     FM180600 28010G18KT P6SM OVC015
     FM181600 26006KT P6SM BKN025=



000
FTUS41 KPBZ 172300
TAFBVI
TAF
KBVI 172320Z 1800/1824 26010KT P6SM OVC025
     FM180300 28008G18KT P6SM OVC015
     FM181700 26012KT P6SM OVC025=



000
FTUS41 KPBZ 172300
TAFDUJ
TAF
KDUJ 172320Z 1800/1824 27012G18KT 6SM -SN OVC010
     FM180400 28010G18KT 2SM -SN OVC008
     FM181300 28010G18KT P6SM OVC015
     FM182000 28012G20KT 6SM -SN OVC008=



000
FTUS41 KPBZ 172300
TAFPIT
TAF
KPIT 172320Z 1800/1906 26010KT P6SM OVC025
     FM180300 28008G18KT P6SM OVC015
     FM181600 26012KT P6SM OVC025
     FM190100 27005KT P6SM OVC025=



000
FTUS41 KPBZ 172300
TAFHLG
TAF
KHLG 172320Z 1800/1824 26010KT P6SM OVC025
     FM180300 28008G18KT P6SM OVC015
     FM181600 26012KT P6SM OVC025=



000
FTUS41 KPBZ 172300
TAFAGC
TAF
KAGC 172320Z 1800/1824 26010KT P6SM OVC025
     FM180300 28008G18KT P6SM OVC015
     FM181600 26012KT P6SM OVC025=



000
FTUS41 KPBZ 172300
TAFLBE
TAF
KLBE 172320Z 1800/1824 27012KT P6SM OVC025
     FM180400 28008G18KT 6SM -SN OVC010
     FM181300 26012KT P6SM OVC015
     FM181900 27012KT P6SM OVC025=



000
FTUS41 KPBZ 172200 AAA
TAFMGW
TAF AMD
KMGW 172255Z 1723/1818 26008KT P6SM OVC022
     FM180600 28007KT P6SM BKN025
     FM181400 26006KT P6SM BKN035=



000
FTUS41 KPBZ 172200 AAC
TAFLBE
TAF AMD
KLBE 172254Z 1723/1818 27012KT P6SM OVC025
     FM180300 28008KT P6SM -SHSN OVC018
     FM181400 26006KT P6SM BKN025=



000
FTUS41 KPBZ 172200 AAA
TAFHLG
TAF AMD
KHLG 172254Z 1723/1818 26010KT P6SM OVC022
     FM180300 28008KT P6SM OVC018
     FM181400 26006KT P6SM BKN025=



000
FTUS41 KPBZ 172200 AAA
TAFAGC
TAF AMD
KAGC 172253Z 1723/1818 26010KT P6SM OVC022
     FM180300 28008KT P6SM OVC018
     FM181400 26006KT P6SM BKN025=



000
FTUS41 KPBZ 172200 AAA
TAFPIT
TAF AMD
KPIT 172253Z 1723/1824 26010KT P6SM OVC022
     FM180300 28008KT P6SM OVC018
     FM181400 26006KT P6SM BKN025=



000
FTUS41 KPBZ 172200 AAA
TAFBVI
TAF AMD
KBVI 172253Z 1723/1818 28010KT P6SM OVC022
     FM180200 28008KT P6SM OVC015
     FM181500 26006KT P6SM BKN025=



000
FTUS41 KPBZ 172100 AAB
TAFLBE
TAF AMD
KLBE 172110Z 1721/1818 27012G22KT P6SM OVC025
     FM180300 28008KT P6SM -SHSN OVC018
     FM181400 26006KT P6SM BKN025=



000
FTUS41 KPBZ 172100 AAB
TAFZZV
TAF AMD
KZZV 172110Z 1721/1818 26010G18KT P6SM OVC020
     FM180800 28007KT P6SM BKN025
     FM181400 26006KT P6SM BKN035=



000
FTUS41 KPBZ 172100 AAB
TAFZZV
TAF AMD
KZZV 172110Z 1721/1818 26010G18KT P6SM OVC020
     FM180800 28007KT P6SM BKN025
     FM181400 26006KT P6SM BKN035=



000
FTUS41 KPBZ 172100 AAB
TAFLBE
TAF AMD
KLBE 172110Z 1721/1818 27012G22KT P6SM OVC025
     FM180300 28008KT P6SM -SHSN OVC018
     FM181400 26006KT P6SM BKN025=



000
FTUS41 KPBZ 171900 AAA
TAFLBE
TAF AMD
KLBE 171908Z 1719/1818 26010G20KT P6SM OVC012
     FM180300 28008KT P6SM -SHSN OVC018
     FM181400 26006KT P6SM BKN025=



000
FTUS41 KPBZ 171900 AAA
TAFZZV
TAF AMD
KZZV 171908Z 1719/1818 26010G18KT P6SM OVC018
     FM180800 28007KT P6SM BKN025
     FM181400 26006KT P6SM BKN035=



000
FTUS41 KPBZ 171700
TAFBVI
TAF
KBVI 171727Z 1718/1818 28010G20KT P6SM OVC022
     FM180200 28008KT P6SM OVC015
     FM181500 26006KT P6SM BKN025=



000
FTUS41 KPBZ 171700
TAFHLG
TAF
KHLG 171727Z 1718/1818 26010G20KT P6SM OVC022
     FM180300 28008KT P6SM OVC018
     FM181400 26006KT P6SM BKN025=



000
FTUS41 KPBZ 171700
TAFZZV
TAF
KZZV 171727Z 1718/1818 26010G18KT P6SM OVC023
     FM180800 28007KT P6SM BKN025
     FM181400 26006KT P6SM BKN035=



000
FTUS41 KPBZ 171700
TAFPIT
TAF
KPIT 171727Z 1718/1824 26010G20KT P6SM OVC022
     FM180300 28008KT P6SM OVC018
     FM181400 26006KT P6SM BKN025=



000
FTUS41 KPBZ 171700
TAFDUJ
TAF
KDUJ 171727Z 1718/1818 26012G22KT P6SM -SHSN OVC015
      TEMPO 1718/1720 1 1/2SM -SHSN BKN006
     FM180200 26008KT 2SM -SN OVC006
     FM180600 28007KT P6SM -SHSN BKN008
     FM181200 28006KT P6SM BKN015=



000
FTUS41 KPBZ 171700
TAFMGW
TAF
KMGW 171727Z 1718/1818 26010G18KT P6SM OVC022
     FM180600 28007KT P6SM BKN025
     FM181400 26006KT P6SM BKN035=



000
FTUS41 KPBZ 171700
TAFAGC
TAF
KAGC 171727Z 1718/1818 26010G20KT P6SM OVC022
     FM180300 28008KT P6SM OVC018
     FM181400 26006KT P6SM BKN025=



000
FTUS41 KPBZ 171700
TAFLBE
TAF
KLBE 171727Z 1718/1818 26010G20KT P6SM OVC022
      TEMPO 1718/1719 2SM -SHSN BKN008
     FM180300 28008KT P6SM OVC018
     FM181400 26006KT P6SM BKN025=



000
FTUS41 KPBZ 171600 AAA
TAFMGW
TAF AMD
KMGW 171621Z 1716/1812 26009KT P6SM OVC020
      TEMPO 1716/1717 1 1/2SM -SHSN OVC013
     FM171800 26012G20KT P6SM BKN025
     FM172100 27014G22KT P6SM BKN035=



000
FTUS41 KPBZ 171500 AAB
TAFBVI
TAF AMD
KBVI 171513Z 1715/1812 26010G20KT P6SM -SHSN OVC018
      TEMPO 1715/1717 2SM -SHSN BKN008
     FM171700 26010G18KT P6SM OVC022
     FM180200 25006KT P6SM BKN025
     FM180600 28008KT P6SM OVC015=



000
FTUS41 KPBZ 171500 AAA
TAFAGC
TAF AMD
KAGC 171513Z 1715/1812 26010G20KT P6SM -SHSN OVC018
      TEMPO 1715/1717 2SM -SHSN BKN010
     FM171700 26010G18KT P6SM OVC022
     FM180200 25006KT P6SM BKN025
     FM180600 28008KT P6SM OVC015=



000
FTUS41 KPBZ 171500 CCA
TAFPIT
TAF COR
KPIT 171512Z 1715/1818 26010G20KT P6SM -SHSN OVC018
      TEMPO 1715/1717 2SM -SHSN BKN010
     FM171700 26010G18KT P6SM OVC022
     FM180200 25006KT P6SM BKN025
     FM180600 28008KT P6SM OVC015=



000
FTUS41 KPBZ 171500 AAA
TAFPIT
TAF AMD
KPIT 171507Z 1715/1818 26010G20KT P6SM -SHSN OVC018
     FM171700 26010G18KT P6SM OVC022
     FM180200 25006KT P6SM BKN025
     FM180600 28008KT P6SM OVC015=



000
FTUS41 KPBZ 171400 AAB
TAFDUJ
TAF AMD
KDUJ 171441Z 1715/1812 26012G22KT P6SM -SHRASN OVC006
      TEMPO 1715/1718 1 1/2SM -SHSN
     FM171800 26012G22KT P6SM -SHSN OVC012
     FM180600 26008KT P6SM BKN008=



000
FTUS41 KPBZ 171400 AAA
TAFBVI
TAF AMD
KBVI 171415Z 1714/1812 26010G20KT P6SM OVC013
      TEMPO 1714/1716 4SM -SHSN BKN008
     FM172100 26013G23KT P6SM OVC022
     FM180300 28008KT P6SM OVC015=



000
FTUS41 KPBZ 171400 AAC
TAFZZV
TAF AMD
KZZV 171412Z 1714/1812 27010G20KT P6SM OVC022
     FM171800 27010G20KT P6SM BKN025
     FM172100 27007KT P6SM BKN035
     FM180600 28005KT P6SM OVC025=



000
FTUS41 KPBZ 171200 AAB
TAFZZV
TAF AMD
KZZV 171245Z 1713/1812 26008KT P6SM SCT008 OVC013
      TEMPO 1713/1714 BKN008
     FM171800 27010G20KT P6SM BKN025
     FM172100 27007KT P6SM BKN035=



000
FTUS41 KPBZ 171200 AAA
TAFLBE
TAF AMD
KLBE 171238Z 1713/1812 25012G22KT P6SM -SHRASN OVC012
     FM171700 27012G24KT P6SM OVC022
     FM180200 26007KT P6SM BKN020=



000
FTUS41 KPBZ 171200 AAA
TAFHLG
TAF AMD
KHLG 171237Z 1713/1812 26012G24KT P6SM OVC015
     FM171800 27012G24KT P6SM OVC022
     FM172300 26008KT P6SM OVC018=



000
FTUS41 KPBZ 171200 AAA
TAFZZV
TAF AMD
KZZV 171235Z 1713/1812 26008KT P6SM OVC013
     FM171800 27010G20KT P6SM BKN025
     FM172100 27007KT P6SM BKN035=



000
FTUS41 KPBZ 171200 AAA
TAFDUJ
TAF AMD
KDUJ 171233Z 1713/1812 26012G22KT P6SM -SHRASN OVC006
     FM171500 26012G18KT P6SM -SHSN OVC015
     FM180600 26008KT P6SM BKN008=



000
FTUS41 KPBZ 171200 CCA
TAFDUJ
TAF COR
KDUJ 171233Z 1713/1812 26012G22KT P6SM -SHRASN OVC006
     FM171500 26012G22KT P6SM -SHSN OVC015
     FM180600 26008KT P6SM BKN008=



000
FTUS41 KPBZ 171100
TAFLBE
TAF
KLBE 171130Z 1712/1812 24012G18KT 5SM -RA BR OVC010
     FM171300 25012G18KT P6SM -DZ OVC015
     FM171700 26015G24KT P6SM BKN025
     FM180200 28010KT P6SM BKN035=



000
FTUS41 KPBZ 171100
TAFMGW
TAF
KMGW 171130Z 1712/1812 24009KT P6SM OVC012
     FM171600 26012G20KT P6SM BKN025
     FM172000 27014G22KT P6SM BKN035=



000
FTUS41 KPBZ 171100
TAFDUJ
TAF
KDUJ 171130Z 1712/1812 25008KT 5SM -RA BR OVC007
     FM171500 26012G18KT P6SM VCSH OVC015
      TEMPO 1715/1718 6SM -SN OVC007
     FM180900 26010KT P6SM BKN015=



000
FTUS41 KPBZ 171100
TAFHLG
TAF
KHLG 171130Z 1712/1812 26011KT P6SM OVC015
     FM171500 26014G22KT P6SM BKN025
     FM171900 27016G25KT P6SM BKN035=



000
FTUS41 KPBZ 171100
TAFAGC
TAF
KAGC 171130Z 1712/1812 25012G18KT P6SM -DZ OVC015
     FM171600 26014G22KT P6SM BKN020
     FM180200 28010KT P6SM BKN035=



000
FTUS41 KPBZ 171100
TAFPIT
TAF
KPIT 171130Z 1712/1818 25012G18KT P6SM -DZ OVC015
     FM171600 26014G22KT P6SM BKN020
     FM180200 28010KT P6SM BKN035=



000
FTUS41 KPBZ 171100
TAFBVI
TAF
KBVI 171130Z 1712/1812 26008KT P6SM -DZ OVC015
     FM171600 26013G23KT P6SM BKN025
     FM180200 27010KT P6SM BKN035=



000
FTUS41 KPBZ 171100
TAFZZV
TAF
KZZV 171130Z 1712/1812 26009KT P6SM OVC020
     FM171300 26012G22KT P6SM BKN025
     FM171800 27013G24KT P6SM BKN035
     FM172300 27007KT P6SM BKN035=



000
FTUS41 KPBZ 170900 AAA
TAFPIT
TAF AMD
KPIT 170905Z 1709/1812 25011KT P6SM OVC015
     FM171500 26014G22KT P6SM BKN025
     FM180200 28010KT P6SM BKN035=



000
FTUS41 KPBZ 170900 AAA
TAFPIT
TAF AMD
KPIT 170905Z 1709/1812 25011KT P6SM OVC015
     FM171500 26014G22KT P6SM BKN025
     FM180200 28010KT P6SM BKN035=



000
FTUS41 KPBZ 170500 CCA
TAFHLG
TAF COR
KHLG 170541Z 1706/1806 25012G18KT 6SM -RA BR BKN010 OVC015
      TEMPO 1707/1709 OVC008
     FM171200 26011KT P6SM OVC015
     FM171500 26014G22KT P6SM BKN025
     FM171900 27016G25KT P6SM BKN035=



000
FTUS41 KPBZ 170500
TAFAGC
TAF
KAGC 170539Z 1706/1806 24012G18KT 3SM -RA BR OVC008
     FM171200 25012KT P6SM OVC015
     FM171500 26015G23KT P6SM BKN025
     FM180200 28010KT P6SM BKN035=



000
FTUS41 KPBZ 170500
TAFZZV
TAF
KZZV 170539Z 1706/1806 26014G19KT P6SM OVC011
     FM171100 26009KT P6SM OVC020
     FM171500 26012G22KT P6SM BKN025
     FM171800 27013G24KT P6SM BKN035=



000
FTUS41 KPBZ 170500
TAFDUJ
TAF
KDUJ 170539Z 1706/1806 24011KT 5SM BR BKN006 BKN010 OVC015
      TEMPO 1707/1709 OVC010
     FM171500 26012G22KT P6SM OVC008
     FM171800 27015G25KT P6SM OVC015=



000
FTUS41 KPBZ 170500
TAFPIT
TAF
KPIT 170539Z 1706/1812 24012G18KT 3SM -RA BR BKN007 OVC010
     FM171200 25011KT P6SM OVC015
     FM171500 26014G22KT P6SM BKN025
     FM180200 28010KT P6SM BKN035=



000
FTUS41 KPBZ 170500
TAFLBE
TAF
KLBE 170539Z 1706/1806 24012G18KT 5SM -RA BR OVC020
      TEMPO 1707/1709 OVC010
     FM171500 26015G24KT P6SM BKN025
     FM180200 28010KT P6SM BKN035
      AMD NOT SKED=



000
FTUS41 KPBZ 170500
TAFHLG
TAF
KHLG 170539Z 1706/1806 25012G18KT 6SM -RA BR BKN010 OVC015
     FM171200 26011KT P6SM OVC015
     FM171500 26014G22KT P6SM BKN025
     FM171900 27016G25KT P6SM BKN035=



000
FTUS41 KPBZ 170500
TAFMGW
TAF
KMGW 170539Z 1706/1806 24009KT P6SM OVC012
     FM171600 26012G20KT P6SM BKN025
     FM172000 27014G22KT P6SM BKN035=



000
FTUS41 KPBZ 170500
TAFBVI
TAF
KBVI 170539Z 1706/1806 24012G18KT 3SM -RA BR OVC008
     FM171200 26008KT P6SM OVC015
     FM171500 26013G23KT P6SM BKN025
      AMD NOT SKED=



    US Dept of Commerce
    National Oceanic and Atmospheric Administration
    National Weather Service
    1325 East West Highway
    Silver Spring, MD 20910
    Page Author: NWS Internet Services Team
Disclaimer
Information Quality
Credits
Glossary
Privacy Policy
Freedom of Information Act (FOIA)
About Us
Career Opportunities